Time;durP1;ratioP1;P1;durP2;ratioP2;P2;SDS_P1;SDS_P2;PMS_P1;PMS_P2;Temp;Humidity;BMP_temperature;BMP_pressure;BME280_temperature;BME280_humidity;BME280_pressure;Samples;Min_cycle;Max_cycle;Signal;HPM_P1;HPM_P2
2023/03/06 00:00:18;;;;;;;14.55;13.05;;;;;;;1.12;100.00;100728.75;6207876;23;20000;-85
2023/03/06 00:02:44;;;;;;;15.90;13.30;;;;;;;1.15;100.00;100720.88;6179812;23;20004;-82
2023/03/06 00:05:10;;;;;;;15.55;13.90;;;;;;;1.13;100.00;100717.38;6180465;23;20399;-85
2023/03/06 00:07:35;;;;;;;16.77;13.68;;;;;;;1.09;100.00;100706.09;6207376;23;20000;-84
2023/03/06 00:10:01;;;;;;;17.75;14.15;;;;;;;1.15;100.00;100715.63;6206924;23;20015;-84
2023/03/06 00:12:26;;;;;;;15.27;13.68;;;;;;;1.15;100.00;100713.00;6204636;23;20016;-84
2023/03/06 00:14:52;;;;;;;17.33;14.85;;;;;;;1.08;100.00;100706.97;6206153;23;20016;-84
2023/03/06 00:17:17;;;;;;;16.70;14.85;;;;;;;1.10;100.00;100693.84;6179265;23;20058;-83
2023/03/06 00:19:42;;;;;;;17.60;14.77;;;;;;;1.13;100.00;100699.03;6203852;23;20375;-83
2023/03/06 00:22:12;;;;;;;20.42;15.75;;;;;;;1.07;100.00;100691.28;6206842;23;20004;-83
2023/03/06 00:24:38;;;;;;;19.38;15.77;;;;;;;1.12;100.00;100698.16;6204864;23;20004;-83
2023/03/06 00:27:03;;;;;;;17.23;15.43;;;;;;;1.03;100.00;100682.56;6205989;23;20074;-85
2023/03/06 00:29:28;;;;;;;17.33;15.52;;;;;;;1.07;100.00;100693.88;6206263;23;20064;-84
2023/03/06 00:31:54;;;;;;;19.50;16.38;;;;;;;1.02;100.00;100687.84;6206239;23;20015;-85
2023/03/06 00:34:19;;;;;;;22.63;17.38;;;;;;;1.04;100.00;100692.16;6205422;23;20008;-84
2023/03/06 00:36:44;;;;;;;20.02;17.05;;;;;;;1.03;100.00;100686.97;6205409;23;20032;-81
2023/03/06 00:39:09;;;;;;;19.50;16.70;;;;;;;1.01;100.00;100680.88;6207199;23;20315;-82
2023/03/06 00:41:35;;;;;;;23.33;18.63;;;;;;;0.97;100.00;100675.69;6203989;23;20001;-82
2023/03/06 00:44:00;;;;;;;22.83;18.50;;;;;;;0.89;100.00;100669.69;6206003;23;20004;-84
2023/03/06 00:46:25;;;;;;;22.00;17.90;;;;;;;0.93;100.00;100670.50;6206209;23;20004;-84
2023/03/06 00:48:51;;;;;;;20.25;17.38;;;;;;;0.81;100.00;100661.06;6206402;23;20080;-85
2023/03/06 00:51:18;;;;;;;22.88;17.67;;;;;;;0.78;100.00;100668.94;6208644;23;20001;-85
2023/03/06 00:53:44;;;;;;;21.75;18.05;;;;;;;0.86;100.00;100669.72;6204162;23;20005;-85
2023/03/06 00:56:09;;;;;;;21.75;17.08;;;;;;;0.82;100.00;100665.41;6204868;23;20042;-84
2023/03/06 00:58:36;;;;;;;20.80;17.48;;;;;;;0.78;100.00;100666.34;6206027;23;20455;-83
2023/03/06 01:01:02;;;;;;;24.30;17.13;;;;;;;0.77;100.00;100667.22;6205290;23;20474;-84
2023/03/06 01:03:27;;;;;;;20.45;16.38;;;;;;;0.76;100.00;100665.50;6206120;23;20010;-83
2023/03/06 01:05:53;;;;;;;23.02;17.23;;;;;;;0.68;100.00;100655.13;6203302;23;20344;-84
2023/03/06 01:08:18;;;;;;;23.38;16.92;;;;;;;0.71;100.00;100668.19;6206935;23;20092;-84
2023/03/06 01:10:43;;;;;;;25.38;18.13;;;;;;;0.62;100.00;100651.72;6209780;23;20028;-82
2023/03/06 01:13:09;;;;;;;22.23;16.10;;;;;;;0.59;100.00;100651.78;6229540;23;20013;-83
2023/03/06 01:15:35;;;;;;;21.23;16.08;;;;;;;0.57;100.00;100656.16;6228525;23;20008;-83
2023/03/06 01:18:00;;;;;;;21.33;16.75;;;;;;;0.61;100.00;100652.59;6227973;23;20000;-83
2023/03/06 01:20:25;;;;;;;20.77;16.10;;;;;;;0.52;100.00;100637.00;6208660;23;20000;-85
2023/03/06 01:22:51;;;;;;;19.88;16.42;;;;;;;0.53;100.00;100650.06;6207655;23;20000;-84
2023/03/06 01:25:16;;;;;;;20.20;16.27;;;;;;;0.49;100.00;100646.63;6206313;23;20331;-83
2023/03/06 01:27:41;;;;;;;20.05;15.50;;;;;;;0.40;100.00;100640.66;6204810;23;20054;-83
2023/03/06 01:30:07;;;;;;;21.58;15.98;;;;;;;0.36;100.00;100631.09;6206284;23;20167;-82
2023/03/06 01:32:33;;;;;;;19.35;15.68;;;;;;;0.28;100.00;100630.31;6208431;23;20005;-84
2023/03/06 01:34:58;;;;;;;20.98;16.70;;;;;;;0.29;100.00;100632.91;6208105;23;20074;-84
2023/03/06 01:37:23;;;;;;;22.15;17.30;;;;;;;0.32;100.00;100643.34;6207267;23;20032;-84
2023/03/06 01:39:49;;;;;;;21.40;16.20;;;;;;;0.32;100.00;100642.50;6206979;23;19997;-83
2023/03/06 01:42:14;;;;;;;22.10;17.42;;;;;;;0.35;100.00;100640.72;6207440;23;20012;-83
2023/03/06 01:45:04;;;;;;;22.45;17.35;;;;;;;0.39;100.00;100637.16;6204734;23;20635;-83
2023/03/06 01:47:29;;;;;;;23.75;17.55;;;;;;;0.26;100.00;100604.19;6202391;23;20092;-84
2023/03/06 01:49:56;;;;;;;22.95;18.23;;;;;;;0.47;100.00;100626.59;6206201;23;20011;-84
2023/03/06 01:52:27;;;;;;;21.42;17.27;;;;;;;0.44;100.00;100622.25;6206033;23;20004;-83
2023/03/06 01:54:58;;;;;;;22.08;17.33;;;;;;;0.40;100.00;100614.47;6204692;23;20652;-82
2023/03/06 01:57:27;;;;;;;22.70;17.05;;;;;;;0.42;100.00;100626.66;6206457;23;20000;-84
2023/03/06 02:00:02;;;;;;;21.08;17.15;;;;;;;0.39;100.00;100624.06;6204727;23;20032;-84
2023/03/06 02:02:28;;;;;;;23.42;17.35;;;;;;;0.38;100.00;100624.97;6205589;23;20108;-84
2023/03/06 02:04:53;;;;;;;19.27;16.20;;;;;;;0.32;100.00;100622.41;6206116;23;20502;-83
2023/03/06 02:07:20;;;;;;;18.52;15.82;;;;;;;0.31;100.00;100614.59;6206930;23;20036;-83
2023/03/06 02:09:46;;;;;;;22.25;16.25;;;;;;;0.25;100.00;100620.75;6206554;23;20304;-83
2023/03/06 02:12:15;;;;;;;20.10;16.25;;;;;;;0.18;100.00;100624.34;6206922;23;20011;-83
2023/03/06 02:14:41;;;;;;;21.52;16.08;;;;;;;0.12;100.00;100616.53;6204396;23;20087;-83
2023/03/06 02:17:08;;;;;;;23.02;17.20;;;;;;;0.07;100.00;100619.22;6205742;23;20489;-83
2023/03/06 02:19:39;;;;;;;21.75;16.45;;;;;;;0.02;100.00;100612.31;6206252;23;20009;-84
2023/03/06 02:22:05;;;;;;;26.75;18.38;;;;;;;-0.03;100.00;100615.84;6206283;23;20068;-85
2023/03/06 02:24:38;;;;;;;24.00;18.77;;;;;;;-0.05;100.00;100609.75;6204472;23;20008;-84
2023/03/06 02:27:05;;;;;;;25.08;18.45;;;;;;;-0.07;100.00;100601.06;6207830;23;20005;-84
2023/03/06 02:29:32;;;;;;;24.90;18.45;;;;;;;-0.11;100.00;100601.13;6206881;23;20103;-84
2023/03/06 02:31:57;;;;;;;23.98;18.88;;;;;;;-0.13;100.00;100603.72;6180349;23;20008;-84
2023/03/06 02:34:22;;;;;;;26.33;18.67;;;;;;;-0.14;100.00;100593.31;6205955;23;20009;-84
2023/03/06 02:36:51;;;;;;;29.35;20.55;;;;;;;-0.19;100.00;100598.59;6206088;23;20021;-84
2023/03/06 02:39:20;;;;;;;28.58;21.23;;;;;;;-0.23;100.00;100582.94;6208126;23;20419;-84
2023/03/06 02:41:45;;;;;;;29.60;20.88;;;;;;;-0.21;100.00;100584.63;6206766;23;20082;-84
2023/03/06 02:44:11;;;;;;;31.08;20.80;;;;;;;-0.23;100.00;100575.09;6206729;23;20415;-83
2023/03/06 02:46:36;;;;;;;32.08;23.42;;;;;;;-0.22;100.00;100571.59;6207027;23;20083;-84
2023/03/06 02:49:01;;;;;;;32.63;23.50;;;;;;;-0.28;100.00;100572.53;6207633;23;20500;-85
2023/03/06 02:51:27;;;;;;;33.28;23.27;;;;;;;-0.23;100.00;100573.34;6207807;23;20036;-84
2023/03/06 02:53:52;;;;;;;33.20;24.50;;;;;;;-0.24;100.00;100562.91;6209783;23;20068;-85
2023/03/06 02:56:19;;;;;;;34.25;25.23;;;;;;;-0.22;100.00;100562.00;6207852;23;20004;-83
2023/03/06 02:58:44;;;;;;;39.35;26.40;;;;;;;-0.20;100.00;100560.25;6207598;23;20001;-84
2023/03/06 03:01:10;;;;;;;35.65;25.60;;;;;;;-0.26;100.00;100544.59;6208586;23;20005;-84
2023/03/06 03:03:35;;;;;;;36.13;24.85;;;;;;;-0.22;100.00;100554.16;6179361;23;20064;-84
2023/03/06 03:06:04;;;;;;;35.30;24.92;;;;;;;-0.26;100.00;100558.53;6207321;23;20021;-85
2023/03/06 03:08:29;;;;;;;35.42;24.52;;;;;;;-0.33;100.00;100541.22;6207165;23;20008;-84
2023/03/06 03:10:55;;;;;;;41.78;28.25;;;;;;;-0.31;100.00;100542.03;6207530;23;20011;-85
2023/03/06 03:13:20;;;;;;;39.28;27.05;;;;;;;-0.23;100.00;100552.41;6206927;23;20012;-84
2023/03/06 03:15:57;;;;;;;38.30;26.20;;;;;;;-0.24;100.00;100548.09;6207028;23;20005;-85
2023/03/06 03:18:22;;;;;;;41.65;27.33;;;;;;;-0.22;100.00;100548.06;6207280;23;20365;-85
2023/03/06 03:20:47;;;;;;;44.35;29.27;;;;;;;-0.21;100.00;100542.78;6207061;23;20000;-85
2023/03/06 03:23:12;;;;;;;43.97;28.08;;;;;;;-0.13;100.00;100547.94;6206614;23;20004;-84
2023/03/06 03:25:38;;;;;;;46.63;30.58;;;;;;;-0.11;100.00;100546.19;6206648;23;20007;-84
2023/03/06 03:28:03;;;;;;;45.42;30.27;;;;;;;-0.08;100.00;100547.03;6207984;23;20004;-84
2023/03/06 03:30:28;;;;;;;49.42;31.38;;;;;;;-0.08;100.00;100539.19;6205823;23;20095;-85
2023/03/06 03:32:54;;;;;;;53.08;32.17;;;;;;;-0.11;100.00;100536.59;6225435;23;20000;-83
2023/03/06 03:35:19;;;;;;;49.28;31.75;;;;;;;-0.15;100.00;100526.19;6231293;23;20153;-83
2023/03/06 03:37:44;;;;;;;49.50;31.98;;;;;;;-0.10;100.00;100529.59;6227012;23;20018;-83
2023/03/06 03:40:10;;;;;;;54.53;34.05;;;;;;;-0.16;100.00;100514.84;6207421;23;20008;-83
2023/03/06 03:42:36;;;;;;;53.92;32.80;;;;;;;-0.06;100.00;100531.28;6206181;23;20016;-85
2023/03/06 03:45:01;;;;;;;54.50;33.63;;;;;;;-0.08;100.00;100528.72;6206454;23;20012;-85
2023/03/06 03:47:27;;;;;;;53.90;33.58;;;;;;;-0.09;100.00;100534.81;6181030;23;20044;-84
2023/03/06 03:49:52;;;;;;;54.47;34.08;;;;;;;-0.09;100.00;100528.72;6209107;23;20012;-83
2023/03/06 03:52:17;;;;;;;54.83;33.83;;;;;;;-0.13;100.00;100525.25;6209804;23;20005;-84
2023/03/06 03:54:43;;;;;;;50.90;32.70;;;;;;;-0.15;100.00;100521.81;6205404;23;20334;-83
2023/03/06 03:57:08;;;;;;;56.00;35.00;;;;;;;-0.22;100.00;100512.28;6208043;23;20350;-85
2023/03/06 03:59:33;;;;;;;53.95;34.38;;;;;;;-0.23;100.00;100507.97;6207782;23;20001;-84
2023/03/06 04:01:59;;;;;;;56.15;36.10;;;;;;;-0.21;100.00;100513.16;6207985;23;20124;-86
2023/03/06 04:04:24;;;;;;;55.13;33.42;;;;;;;-0.31;100.00;100502.81;6206167;23;20032;-84
2023/03/06 04:06:50;;;;;;;54.08;33.42;;;;;;;-0.23;100.00;100509.72;6206054;23;20027;-85
2023/03/06 04:09:15;;;;;;;60.28;36.65;;;;;;;-0.26;100.00;100505.38;6206207;23;20004;-85
2023/03/06 04:11:40;;;;;;;58.25;36.17;;;;;;;-0.26;100.00;100503.63;6207772;23;20004;-83
2023/03/06 04:14:07;;;;;;;59.55;35.38;;;;;;;-0.25;100.00;100494.06;6206975;23;20427;-83
2023/03/06 04:16:32;;;;;;;59.65;33.22;;;;;;;-0.28;100.00;100489.72;6206005;23;20001;-83
2023/03/06 04:18:58;;;;;;;54.83;34.17;;;;;;;-0.24;100.00;100494.91;6180362;23;20055;-84
2023/03/06 04:21:23;;;;;;;58.13;35.25;;;;;;;-0.27;100.00;100493.19;6207079;23;20011;-84
2023/03/06 04:23:48;;;;;;;56.08;34.78;;;;;;;-0.28;100.00;100494.06;6205627;23;20005;-85
2023/03/06 04:26:13;;;;;;;57.17;34.38;;;;;;;-0.30;100.00;100495.81;6207535;23;20008;-85
2023/03/06 04:28:39;;;;;;;56.40;33.55;;;;;;;-0.33;100.00;100488.91;6205294;23;20008;-84
2023/03/06 04:31:04;;;;;;;63.92;37.03;;;;;;;-0.35;100.00;100495.03;6207439;23;20027;-85
2023/03/06 04:33:30;;;;;;;63.88;37.05;;;;;;;-0.40;100.00;100468.94;6205530;23;20329;-84
2023/03/06 04:35:55;;;;;;;58.13;34.95;;;;;;;-0.36;100.00;100485.47;6206957;23;20012;-84
2023/03/06 04:38:20;;;;;;;65.95;37.00;;;;;;;-0.41;100.00;100480.28;6206529;23;20000;-85
2023/03/06 04:40:46;;;;;;;64.85;36.97;;;;;;;-0.42;100.00;100475.91;6206376;23;20026;-85
2023/03/06 04:43:11;;;;;;;64.95;36.83;;;;;;;-0.38;100.00;100482.84;6203429;23;20004;-83
2023/03/06 04:45:37;;;;;;;64.32;36.08;;;;;;;-0.37;100.00;100481.13;6200909;23;20216;-83
2023/03/06 04:48:02;;;;;;;63.78;36.67;;;;;;;-0.34;100.00;100467.97;6201052;23;20012;-84
2023/03/06 04:50:31;;;;;;;60.85;35.70;;;;;;;-0.39;100.00;100468.03;6199745;23;20143;-85
2023/03/06 04:52:57;;;;;;;63.30;36.40;;;;;;;-0.38;100.00;100461.91;6203094;23;20016;-85
2023/03/06 04:55:22;;;;;;;64.40;37.10;;;;;;;-0.31;100.00;100475.81;6204956;23;20047;-84
2023/03/06 04:57:48;;;;;;;64.63;35.97;;;;;;;-0.34;100.00;100466.22;6201713;23;20008;-85
2023/03/06 05:00:15;;;;;;;64.45;36.15;;;;;;;-0.33;100.00;100464.50;6201114;23;20481;-84
2023/03/06 05:02:42;;;;;;;64.22;37.20;;;;;;;-0.23;100.00;100476.56;6200395;23;20062;-84
2023/03/06 05:05:08;;;;;;;64.80;36.22;;;;;;;-0.22;100.00;100475.69;6201471;23;20327;-85
2023/03/06 05:07:34;;;;;;;65.80;38.60;;;;;;;-0.22;100.00;100473.06;6199867;23;20016;-85
2023/03/06 05:09:59;;;;;;;64.80;36.53;;;;;;;-0.19;100.00;100465.19;6206748;23;20008;-84
2023/03/06 05:12:24;;;;;;;62.88;36.45;;;;;;;-0.19;100.00;100465.19;6203204;23;20087;-85
2023/03/06 05:14:50;;;;;;;62.97;38.25;;;;;;;-0.14;100.00;100465.97;6205650;23;20066;-84
2023/03/06 05:17:15;;;;;;;65.68;38.15;;;;;;;-0.11;100.00;100463.34;6206192;23;20190;-85
2023/03/06 05:19:40;;;;;;;62.92;37.42;;;;;;;-0.09;100.00;100461.56;6204838;23;20442;-85
2023/03/06 05:22:05;;;;;;;58.47;35.90;;;;;;;-0.08;100.00;100452.84;6204397;23;20011;-86
2023/03/06 05:24:31;;;;;;;61.15;36.60;;;;;;;-0.11;100.00;100452.88;6205692;23;20015;-85
2023/03/06 05:26:56;;;;;;;59.50;36.10;;;;;;;-0.08;100.00;100459.81;6206512;23;20012;-83
2023/03/06 05:29:21;;;;;;;63.10;36.92;;;;;;;-0.09;100.00;100456.31;6179826;23;20043;-85
2023/03/06 05:31:47;;;;;;;59.25;36.38;;;;;;;-0.12;100.00;100445.06;6205907;23;20078;-85
2023/03/06 05:34:13;;;;;;;60.97;38.00;;;;;;;-0.08;100.00;100451.97;6204225;23;20008;-84
2023/03/06 05:36:39;;;;;;;63.72;38.45;;;;;;;-0.03;100.00;100455.38;6205459;23;20005;-85
2023/03/06 05:39:05;;;;;;;60.50;38.08;;;;;;;-0.03;100.00;100447.53;6206230;23;20519;-84
2023/03/06 05:41:30;;;;;;;65.45;39.47;;;;;;;-0.10;100.00;100427.56;6205136;23;20043;-84
2023/03/06 05:43:56;;;;;;;62.70;38.95;;;;;;;-0.07;100.00;100438.88;6178324;23;20008;-84
2023/03/06 05:46:21;;;;;;;62.38;37.67;;;;;;;-0.04;100.00;100444.06;6206157;23;20500;-83
2023/03/06 05:48:46;;;;;;;61.13;39.67;;;;;;;-0.03;100.00;100429.22;6205210;23;20012;-84
2023/03/06 05:51:12;;;;;;;62.58;37.75;;;;;;;0.04;100.00;100437.84;6217514;23;20008;-81
2023/03/06 05:53:37;;;;;;;65.07;39.42;;;;;;;0.08;100.00;100439.53;6226394;23;20016;-84
2023/03/06 05:56:05;;;;;;;60.00;38.22;;;;;;;0.06;100.00;100444.78;6227419;23;20030;-83
2023/03/06 05:58:32;;;;;;;62.13;36.72;;;;;;;0.07;100.00;100443.03;6222072;23;20023;-83
2023/03/06 06:00:57;;;;;;;59.92;36.95;;;;;;;-0.03;100.00;100422.25;6209125;23;20559;-83
2023/03/06 06:03:23;;;;;;;59.58;36.88;;;;;;;0.06;100.00;100436.94;6207740;23;20494;-82
2023/03/06 06:05:49;;;;;;;61.63;37.38;;;;;;;0.07;100.00;100436.03;6207817;23;20032;-85
2023/03/06 06:08:14;;;;;;;57.47;35.58;;;;;;;0.04;100.00;100430.84;6209487;23;20007;-84
2023/03/06 06:10:40;;;;;;;57.42;37.05;;;;;;;0.09;100.00;100431.66;6209240;23;20104;-85
2023/03/06 06:13:05;;;;;;;60.88;37.05;;;;;;;0.03;100.00;100425.66;6210600;23;20012;-84
2023/03/06 06:15:31;;;;;;;60.30;36.92;;;;;;;0.13;100.00;100437.72;6209243;23;20038;-84
2023/03/06 06:17:56;;;;;;;61.17;37.83;;;;;;;0.13;100.00;100440.34;6209242;23;20095;-85
2023/03/06 06:20:22;;;;;;;59.72;36.75;;;;;;;0.13;100.00;100435.13;6208097;23;19997;-84
2023/03/06 06:22:48;;;;;;;61.85;37.53;;;;;;;0.14;100.00;100437.69;6206565;23;20000;-84
2023/03/06 06:25:14;;;;;;;62.97;38.45;;;;;;;0.11;100.00;100429.88;6207952;23;20032;-84
2023/03/06 06:27:39;;;;;;;60.28;38.25;;;;;;;0.13;100.00;100432.50;6207251;23;20152;-84
2023/03/06 06:30:05;;;;;;;61.58;38.05;;;;;;;0.18;100.00;100435.91;6208175;23;20005;-84
2023/03/06 06:32:31;;;;;;;63.38;38.92;;;;;;;0.12;100.00;100422.88;6206530;23;20031;-83
2023/03/06 06:34:56;;;;;;;63.53;38.58;;;;;;;0.15;100.00;100426.34;6207197;23;20004;-84
2023/03/06 06:37:23;;;;;;;62.97;39.00;;;;;;;0.18;100.00;100430.66;6207479;23;20407;-84
2023/03/06 06:39:48;;;;;;;58.92;37.40;;;;;;;0.23;100.00;100431.47;6206302;23;20339;-83
2023/03/06 06:42:15;;;;;;;64.88;41.17;;;;;;;0.20;100.00;100432.34;6206504;23;20008;-83
2023/03/06 06:44:40;;;;;;;63.85;39.28;;;;;;;0.26;100.00;100431.41;6180432;23;20479;-85
2023/03/06 06:47:06;;;;;;;59.53;38.60;;;;;;;0.27;100.00;100424.44;6207395;23;20009;-84
2023/03/06 06:49:31;;;;;;;58.90;37.65;;;;;;;0.25;100.00;100416.56;6204721;23;20004;-84
2023/03/06 06:51:57;;;;;;;60.78;38.92;;;;;;;0.31;100.00;100415.63;6204256;23;20013;-84
2023/03/06 06:54:23;;;;;;;61.13;38.80;;;;;;;0.38;100.00;100433.84;6208672;23;20032;-84
2023/03/06 06:56:48;;;;;;;62.70;39.22;;;;;;;0.41;100.00;100438.16;6208529;23;20016;-85
2023/03/06 06:59:14;;;;;;;62.20;38.60;;;;;;;0.34;100.00;100426.94;6208262;23;20013;-85
2023/03/06 07:01:39;;;;;;;58.17;36.47;;;;;;;0.47;100.00;100441.56;6205365;23;20011;-84
2023/03/06 07:04:04;;;;;;;62.03;40.05;;;;;;;0.37;100.00;100420.75;6205851;23;20012;-84
2023/03/06 07:06:30;;;;;;;60.22;38.70;;;;;;;0.56;100.00;100437.06;6206021;23;20036;-83
2023/03/06 07:08:55;;;;;;;61.83;39.55;;;;;;;0.60;100.00;100443.97;6205688;23;20013;-83
2023/03/06 07:11:21;;;;;;;59.67;37.72;;;;;;;0.61;100.00;100437.84;6203438;23;20011;-84
2023/03/06 07:13:46;;;;;;;61.78;39.33;;;;;;;0.56;100.00;100427.44;6206913;23;20012;-84
2023/03/06 07:16:12;;;;;;;62.35;39.45;;;;;;;0.63;100.00;100428.22;6207343;23;20005;-84
2023/03/06 07:18:38;;;;;;;60.15;39.28;;;;;;;0.64;100.00;100427.31;6205006;23;20146;-84
2023/03/06 07:21:04;;;;;;;65.60;40.85;;;;;;;0.74;100.00;100441.97;6206164;23;20431;-84
2023/03/06 07:23:29;;;;;;;64.47;40.40;;;;;;;0.71;100.00;100434.16;6181459;23;20019;-84
2023/03/06 07:25:56;;;;;;;67.95;42.30;;;;;;;0.74;100.00;100447.22;6208289;23;20005;-83
2023/03/06 07:28:22;;;;;;;65.38;41.75;;;;;;;0.74;100.00;100440.22;6208319;23;20011;-85
2023/03/06 07:30:48;;;;;;;63.40;40.03;;;;;;;0.76;100.00;100444.59;6209244;23;20008;-85
2023/03/06 07:33:14;;;;;;;63.15;39.30;;;;;;;0.78;100.00;100445.41;6211330;23;20391;-84
2023/03/06 07:35:42;;;;;;;66.57;40.90;;;;;;;0.76;100.00;100450.69;6208981;23;20027;-85
2023/03/06 07:38:08;;;;;;;68.28;41.40;;;;;;;0.77;100.00;100441.06;6207348;23;20016;-86
2023/03/06 07:40:34;;;;;;;71.43;42.95;;;;;;;0.74;100.00;100442.84;6206787;23;20423;-83
2023/03/06 07:42:59;;;;;;;72.65;43.75;;;;;;;0.71;100.00;100444.63;6209025;23;20015;-83
2023/03/06 07:45:25;;;;;;;70.28;42.70;;;;;;;0.74;100.00;100449.84;6205650;23;20024;-84
2023/03/06 07:47:51;;;;;;;71.05;43.67;;;;;;;0.69;100.00;100434.19;6179717;23;20056;-81
2023/03/06 07:50:17;;;;;;;73.40;43.63;;;;;;;0.69;100.00;100420.25;6207076;23;20063;-85
2023/03/06 07:52:43;;;;;;;74.57;42.72;;;;;;;0.81;100.00;100430.50;6204625;23;20019;-84
2023/03/06 07:55:09;;;;;;;72.13;43.42;;;;;;;0.82;100.00;100427.00;6206678;23;20012;-82
2023/03/06 07:57:35;;;;;;;72.30;43.58;;;;;;;0.95;100.00;100440.72;6208296;23;20056;-82
2023/03/06 08:00:01;;;;;;;73.13;42.97;;;;;;;1.04;100.00;100448.41;6207534;23;20083;-82
2023/03/06 08:02:26;;;;;;;73.93;43.20;;;;;;;1.16;100.00;100447.34;6210067;23;20035;-83
2023/03/06 08:04:55;;;;;;;68.03;41.60;;;;;;;1.17;100.00;100439.47;6224556;23;20008;-82
2023/03/06 08:07:21;;;;;;;66.80;41.28;;;;;;;1.34;100.00;100449.63;6200825;23;20496;-84
2023/03/06 08:09:47;;;;;;;65.00;41.80;;;;;;;1.34;100.00;100449.63;6221283;23;20160;-84
2023/03/06 08:12:12;;;;;;;63.67;41.25;;;;;;;1.34;100.00;100440.88;6208723;23;20005;-85
2023/03/06 08:14:37;;;;;;;63.20;40.63;;;;;;;1.45;100.00;100442.41;6208919;23;20023;-85
2023/03/06 08:17:06;;;;;;;67.50;40.97;;;;;;;1.43;100.00;100436.34;6208139;23;20004;-84
2023/03/06 08:19:31;;;;;;;59.05;38.65;;;;;;;1.42;100.00;100444.22;6208026;23;20008;-84
2023/03/06 08:21:57;;;;;;;63.47;41.13;;;;;;;1.43;100.00;100459.06;6205667;23;20513;-84
2023/03/06 08:24:23;;;;;;;60.13;38.78;;;;;;;1.28;100.00;100447.09;6206884;23;20005;-86
2023/03/06 08:26:48;;;;;;;62.13;40.10;;;;;;;1.25;100.00;100452.41;6206162;23;20058;-84
2023/03/06 08:29:14;;;;;;;63.72;40.58;;;;;;;1.19;100.00;100455.16;6205811;23;20012;-84
2023/03/06 08:31:44;;;;;;;67.15;41.30;;;;;;;1.15;100.00;100462.22;6204109;23;20034;-84
2023/03/06 08:34:13;;;;;;;63.13;40.78;;;;;;;1.14;100.00;100452.63;6203007;23;20036;-84
2023/03/06 08:36:39;;;;;;;63.65;40.42;;;;;;;1.14;100.00;100455.25;6203516;23;20438;-84
2023/03/06 08:39:05;;;;;;;65.20;40.28;;;;;;;1.13;100.00;100457.88;6180464;23;20005;-85
2023/03/06 08:41:31;;;;;;;61.78;40.38;;;;;;;1.14;100.00;100457.00;6176229;23;20352;-83
2023/03/06 08:43:57;;;;;;;68.47;41.92;;;;;;;1.19;100.00;100457.78;6206422;23;20000;-84
2023/03/06 08:46:24;;;;;;;69.55;43.33;;;;;;;1.31;100.00;100454.94;6203564;23;20102;-84
2023/03/06 08:48:49;;;;;;;69.03;41.67;;;;;;;1.41;100.00;100453.84;6177961;23;20016;-84
2023/03/06 08:51:15;;;;;;;64.65;40.45;;;;;;;1.59;100.00;100443.88;6205354;23;20004;-83
2023/03/06 08:53:41;;;;;;;63.40;40.03;;;;;;;1.87;100.00;100450.28;6205436;23;20004;-82
2023/03/06 08:56:13;;;;;;;61.38;39.83;;;;;;;2.11;100.00;100448.88;6209189;23;20073;-83
2023/03/06 08:58:39;;;;;;;53.78;36.20;;;;;;;2.12;100.00;100432.22;6208078;23;20008;-83
2023/03/06 09:01:05;;;;;;;52.60;34.78;;;;;;;2.21;100.00;100439.03;6205165;23;20117;-83
2023/03/06 09:03:31;;;;;;;45.60;32.47;;;;;;;2.30;100.00;100446.72;6205251;23;20001;-82
2023/03/06 09:05:58;;;;;;;47.70;33.55;;;;;;;2.30;100.00;100438.84;6179758;23;20770;-82
2023/03/06 09:08:23;;;;;;;45.45;31.42;;;;;;;2.42;100.00;100454.28;6205567;23;20513;-82
2023/03/06 09:10:48;;;;;;;44.80;30.52;;;;;;;2.56;100.00;100458.38;6204076;23;20008;-83
2023/03/06 09:13:14;;;;;;;45.78;32.38;;;;;;;3.05;100.00;100449.22;6204039;23;20000;-82
2023/03/06 09:15:39;;;;;;;38.70;27.38;;;;;;;3.26;100.00;100446.03;6204917;23;20008;-85
2023/03/06 09:18:05;;;;;;;35.88;26.83;;;;;;;3.31;100.00;100444.16;6205289;23;20031;-83
2023/03/06 09:20:30;;;;;;;34.95;25.98;;;;;;;3.40;100.00;100443.88;6204690;23;20106;-82
2023/03/06 09:22:55;;;;;;;34.70;26.38;;;;;;;3.57;100.00;100447.81;6209023;23;20016;-83
2023/03/06 09:25:22;;;;;;;32.97;24.33;;;;;;;3.52;100.00;100442.69;6185966;23;20012;-82
2023/03/06 09:27:48;;;;;;;33.38;25.35;;;;;;;3.56;100.00;100451.34;6204624;23;20004;-83
2023/03/06 09:30:14;;;;;;;36.53;26.60;;;;;;;3.69;100.00;100447.47;6206154;23;20311;-83
2023/03/06 09:32:40;;;;;;;36.80;26.80;;;;;;;3.73;100.00;100434.16;6204566;23;19996;-86
2023/03/06 09:35:05;;;;;;;35.45;26.13;;;;;;;3.78;100.00;100455.09;6204562;23;20031;-84
2023/03/06 09:37:30;;;;;;;35.10;25.48;;;;;;;3.78;100.00;100444.56;6175972;23;20016;-85
2023/03/06 09:39:56;;;;;;;33.97;26.38;;;;;;;3.83;100.00;100450.53;6202237;23;20094;-84
2023/03/06 09:42:22;;;;;;;33.40;25.88;;;;;;;3.77;100.00;100456.00;6204748;23;20005;-83
2023/03/06 09:44:54;;;;;;;33.10;25.65;;;;;;;3.67;100.00;100459.78;6203529;23;20009;-84
2023/03/06 09:47:38;;;;;;;34.10;26.55;;;;;;;3.58;100.00;100454.78;6204368;23;20007;-83
2023/03/06 09:50:26;;;;;;;33.45;25.67;;;;;;;3.57;100.00;100464.47;6203741;23;20009;-83
2023/03/06 09:53:07;;;;;;;35.50;25.45;;;;;;;3.76;100.00;100462.16;6205354;23;20004;-82
2023/03/06 09:55:37;;;;;;;34.00;24.27;;;;;;;3.88;100.00;100453.03;6203193;23;20012;-82
2023/03/06 09:58:17;;;;;;;31.85;24.52;;;;;;;4.11;100.00;100447.09;6205632;23;20110;-83
2023/03/06 10:01:03;;;;;;;33.33;25.13;;;;;;;4.56;100.00;100451.84;6204250;23;20000;-82
2023/03/06 10:04:08;;;;;;;27.25;22.23;;;;;;;4.91;100.00;100451.53;6205152;23;20143;-81
2023/03/06 10:06:57;;;;;;;28.17;22.10;;;;;;;4.75;100.00;100448.53;6203611;23;20016;-81
2023/03/06 10:09:45;;;;;;;29.52;21.83;;;;;;;4.58;100.00;100457.91;6204571;23;20116;-82
2023/03/06 10:12:22;;;;;;;28.60;21.15;;;;;;;4.63;100.00;100453.34;6205847;23;20009;-83
2023/03/06 10:15:17;;;;;;;26.10;21.08;;;;;;;4.59;100.00;100449.94;6204741;23;20035;-82
2023/03/06 10:17:43;;;;;;;23.83;18.80;;;;;;;4.48;100.00;100442.41;6174132;23;20008;-83
2023/03/06 10:20:17;;;;;;;25.08;19.45;;;;;;;4.45;100.00;100447.75;6206996;23;20365;-80
2023/03/06 10:22:52;;;;;;;23.75;18.83;;;;;;;4.33;100.00;100442.03;6178622;23;20494;-81
2023/03/06 10:25:31;;;;;;;21.55;17.88;;;;;;;4.29;100.00;100446.50;6204636;23;20015;-81
2023/03/06 10:28:23;;;;;;;23.35;18.60;;;;;;;4.60;100.00;100448.16;6204651;23;20084;-82
2023/03/06 10:31:13;;;;;;;24.20;18.95;;;;;;;4.96;100.00;100448.72;6209103;23;20005;-81
2023/03/06 10:33:49;;;;;;;22.13;16.70;;;;;;;4.99;97.60;100441.56;6221682;23;20005;-81
2023/03/06 10:36:17;;;;;;;20.75;17.83;;;;;;;5.07;97.97;100443.09;6224152;23;20011;-82
2023/03/06 10:38:44;;;;;;;22.92;18.85;;;;;;;5.16;98.64;100442.78;6222943;23;20004;-83
2023/03/06 10:41:12;;;;;;;24.67;19.52;;;;;;;5.22;97.50;100459.25;6206931;23;20057;-81
2023/03/06 10:43:40;;;;;;;25.10;19.65;;;;;;;4.89;96.41;100429.63;6204260;23;20542;-83
2023/03/06 10:46:07;;;;;;;24.63;19.58;;;;;;;4.75;98.63;100445.88;6205524;23;20001;-83
2023/03/06 10:48:35;;;;;;;25.55;20.95;;;;;;;4.73;99.28;100452.16;6206857;23;20506;-83
2023/03/06 10:51:22;;;;;;;27.58;21.85;;;;;;;4.58;100.00;100450.00;6206353;23;20016;-83
2023/03/06 10:53:57;;;;;;;29.70;22.63;;;;;;;4.54;100.00;100448.38;6180302;23;20005;-82
2023/03/06 10:56:30;;;;;;;27.83;23.20;;;;;;;4.60;100.00;100448.16;6208967;23;20004;-82
2023/03/06 10:59:21;;;;;;;28.35;23.15;;;;;;;4.58;99.22;100453.50;6206680;23;20008;-82
2023/03/06 11:01:52;;;;;;;29.13;22.48;;;;;;;4.60;99.61;100449.06;6207120;23;20009;-83
2023/03/06 11:04:33;;;;;;;31.52;25.40;;;;;;;4.83;99.82;100450.06;6208751;23;20008;-82
2023/03/06 11:07:20;;;;;;;32.15;24.52;;;;;;;5.04;98.36;100445.81;6209340;23;20312;-83